Time;durP1;ratioP1;P1;durP2;ratioP2;P2;SDS_P1;SDS_P2;PMS_P1;PMS_P2;Temp;Humidity;BMP_temperature;BMP_pressure;BME280_temperature;BME280_humidity;BME280_pressure;Samples;Min_cycle;Max_cycle;Signal;HPM_P1;HPM_P2
2022/05/18 00:00:11;;;;;;;14.07;8.02;;;18.20;99.90;;;;;;5085729;28;20076;-66
2022/05/18 00:02:38;;;;;;;13.07;7.85;;;18.30;99.90;;;;;;5074475;28;20090;-67
2022/05/18 00:05:04;;;;;;;11.75;7.80;;;18.20;99.90;;;;;;5056504;28;20127;-67
2022/05/18 00:07:29;;;;;;;14.75;8.60;;;18.20;99.90;;;;;;5074208;28;20052;-66
2022/05/18 00:09:56;;;;;;;10.40;8.05;;;18.20;99.90;;;;;;5074108;28;20378;-66
2022/05/18 00:12:22;;;;;;;12.88;8.02;;;18.20;99.90;;;;;;5074238;28;20049;-66
2022/05/18 00:14:47;;;;;;;13.95;8.95;;;18.10;99.90;;;;;;5081471;28;20055;-66
2022/05/18 00:17:13;;;;;;;10.85;8.95;;;18.20;99.90;;;;;;5094343;28;20052;-67
2022/05/18 00:19:38;;;;;;;16.23;9.07;;;18.10;99.90;;;;;;5094395;28;20115;-67
2022/05/18 00:22:04;;;;;;;16.38;8.82;;;18.10;99.90;;;;;;5094231;28;20434;-67
2022/05/18 00:24:30;;;;;;;11.13;8.35;;;18.10;99.90;;;;;;5073487;28;20461;-66
2022/05/18 00:26:56;;;;;;;11.00;8.00;;;18.10;99.90;;;;;;5094173;28;20040;-66
2022/05/18 00:29:21;;;;;;;9.73;8.73;;;18.00;99.90;;;;;;5093714;28;20048;-67
2022/05/18 00:31:47;;;;;;;12.57;7.68;;;18.00;99.90;;;;;;5096630;28;20048;-67
2022/05/18 00:34:14;;;;;;;9.82;8.43;;;18.00;99.90;;;;;;5097845;28;20044;-67
2022/05/18 00:36:40;;;;;;;12.70;8.52;;;17.90;99.90;;;;;;5097781;28;20048;-66
2022/05/18 00:39:06;;;;;;;12.52;8.00;;;17.90;99.90;;;;;;5097707;28;20108;-66
2022/05/18 00:41:32;;;;;;;12.93;7.97;;;17.80;99.90;;;;;;5097865;28;20051;-67
2022/05/18 00:43:58;;;;;;;14.80;9.27;;;17.90;99.90;;;;;;5096846;28;20096;-66
2022/05/18 00:46:24;;;;;;;12.93;8.20;;;17.80;99.90;;;;;;5097300;28;20040;-66
2022/05/18 00:48:52;;;;;;;18.17;8.93;;;17.80;99.90;;;;;;5079578;28;20043;-67
2022/05/18 00:51:38;;;;;;;9.93;7.65;;;17.70;99.90;;;;;;5097427;28;20039;-66
2022/05/18 00:54:27;;;;;;;12.73;8.07;;;17.70;99.90;;;;;;5079758;28;20044;-66
2022/05/18 00:57:14;;;;;;;11.27;8.15;;;17.70;99.90;;;;;;5097667;28;20047;-66
2022/05/18 00:59:46;;;;;;;11.80;8.52;;;17.70;99.90;;;;;;5096255;28;20048;-66
2022/05/18 01:02:13;;;;;;;14.75;7.97;;;17.60;99.90;;;;;;5097381;28;20051;-67
2022/05/18 01:04:42;;;;;;;14.13;8.40;;;17.60;99.90;;;;;;5079411;28;20050;-66
2022/05/18 01:07:22;;;;;;;9.88;8.05;;;17.60;99.90;;;;;;5097212;28;20060;-66
2022/05/18 01:09:49;;;;;;;11.20;8.15;;;17.60;99.90;;;;;;5096884;28;20116;-66
2022/05/18 01:12:17;;;;;;;10.52;6.78;;;17.50;99.90;;;;;;5096529;28;20046;-66
2022/05/18 01:14:51;;;;;;;11.20;7.75;;;17.50;99.90;;;;;;5097066;28;20051;-66
2022/05/18 01:17:23;;;;;;;12.70;8.00;;;17.50;99.90;;;;;;5078878;28;20045;-67
2022/05/18 01:19:52;;;;;;;11.68;8.75;;;17.40;99.90;;;;;;5096936;28;20044;-67
2022/05/18 01:22:27;;;;;;;9.98;7.70;;;17.40;99.90;;;;;;5096318;28;20052;-67
2022/05/18 01:25:30;;;;;;;12.48;8.50;;;17.40;99.90;;;;;;5096640;28;20342;-66
2022/05/18 01:27:58;;;;;;;11.57;8.48;;;17.40;99.90;;;;;;5086305;28;20048;-67
2022/05/18 01:30:25;;;;;;;10.52;8.15;;;17.30;99.90;;;;;;5076214;28;20086;-66
2022/05/18 01:32:54;;;;;;;11.68;8.05;;;17.30;99.90;;;;;;5076416;28;20518;-66
2022/05/18 01:35:26;;;;;;;11.07;8.70;;;17.30;99.90;;;;;;5076315;28;20140;-66
2022/05/18 01:37:57;;;;;;;13.38;8.90;;;17.40;99.90;;;;;;5076917;28;20040;-66
2022/05/18 01:40:36;;;;;;;12.40;8.20;;;17.30;99.90;;;;;;5095744;28;20052;-66
2022/05/18 01:43:18;;;;;;;12.23;9.00;;;17.30;99.90;;;;;;5096378;28;20101;-68
2022/05/18 01:45:52;;;;;;;12.02;8.20;;;17.30;99.90;;;;;;5096568;28;20374;-66
2022/05/18 01:48:21;;;;;;;11.02;8.32;;;17.30;99.90;;;;;;5095984;28;20466;-67
2022/05/18 01:50:48;;;;;;;12.60;9.23;;;17.20;99.90;;;;;;5096059;28;20036;-67
2022/05/18 01:53:13;;;;;;;11.95;8.57;;;17.20;99.90;;;;;;5095555;28;20476;-67
2022/05/18 01:55:39;;;;;;;11.48;9.23;;;17.20;99.90;;;;;;5096316;28;20044;-67
2022/05/18 01:58:05;;;;;;;12.82;9.27;;;17.20;99.90;;;;;;5096185;28;20515;-67
2022/05/18 02:00:32;;;;;;;12.50;8.65;;;17.20;99.90;;;;;;5096669;28;20044;-67
2022/05/18 02:02:58;;;;;;;11.13;8.75;;;17.20;99.90;;;;;;5096487;28;20048;-67
2022/05/18 02:05:24;;;;;;;10.43;8.98;;;17.10;99.90;;;;;;5096205;28;20055;-67
2022/05/18 02:07:49;;;;;;;13.52;10.00;;;17.10;99.90;;;;;;5095194;28;20048;-67
2022/05/18 02:10:15;;;;;;;12.82;9.27;;;17.10;99.90;;;;;;5095194;28;20088;-67
2022/05/18 02:12:41;;;;;;;11.82;9.50;;;17.10;99.90;;;;;;5096217;28;20101;-67
2022/05/18 02:15:07;;;;;;;13.82;8.82;;;17.00;99.90;;;;;;5095951;28;20464;-67
2022/05/18 02:17:33;;;;;;;14.80;10.15;;;17.10;99.90;;;;;;5096002;28;20343;-66
2022/05/18 02:19:59;;;;;;;15.10;9.95;;;17.00;99.90;;;;;;5096030;28;20055;-67
2022/05/18 02:22:25;;;;;;;12.98;9.88;;;17.00;99.90;;;;;;5077299;28;20362;-67
2022/05/18 02:24:51;;;;;;;13.20;9.98;;;17.00;99.90;;;;;;5094930;28;20118;-67
2022/05/18 02:27:17;;;;;;;15.77;10.15;;;16.90;99.90;;;;;;5095660;28;20130;-67
2022/05/18 02:29:42;;;;;;;14.15;10.80;;;16.90;99.90;;;;;;5095890;28;20071;-67
2022/05/18 02:32:09;;;;;;;16.55;9.23;;;16.90;99.90;;;;;;5095582;28;20441;-67
2022/05/18 02:34:35;;;;;;;16.67;10.10;;;16.90;99.90;;;;;;5092400;28;20048;-67
2022/05/18 02:37:00;;;;;;;13.02;9.50;;;16.90;99.90;;;;;;5094541;28;20048;-67
2022/05/18 02:39:26;;;;;;;12.75;10.27;;;16.80;99.90;;;;;;5094968;28;20059;-66
2022/05/18 02:41:51;;;;;;;13.77;9.50;;;16.80;99.90;;;;;;5095327;28;20137;-68
2022/05/18 02:44:17;;;;;;;26.70;11.27;;;16.70;99.90;;;;;;5095164;28;20093;-67
2022/05/18 02:46:43;;;;;;;14.95;9.70;;;16.70;99.90;;;;;;5095421;28;20036;-67
2022/05/18 02:49:09;;;;;;;12.70;9.95;;;16.70;99.90;;;;;;5095337;28;20055;-67
2022/05/18 02:51:35;;;;;;;14.00;10.98;;;16.70;99.90;;;;;;5082303;28;20054;-67
2022/05/18 02:54:02;;;;;;;13.98;10.38;;;16.70;99.90;;;;;;5082111;28;20040;-67
2022/05/18 02:56:28;;;;;;;18.70;11.00;;;16.60;99.90;;;;;;5095137;28;20094;-67
2022/05/18 02:58:56;;;;;;;16.25;10.85;;;16.60;99.90;;;;;;5095043;28;20076;-67
2022/05/18 03:01:27;;;;;;;13.20;10.13;;;16.60;99.90;;;;;;5095347;28;20067;-67
2022/05/18 03:03:54;;;;;;;14.75;10.73;;;16.60;99.90;;;;;;5095142;28;20043;-67
2022/05/18 03:06:23;;;;;;;16.08;10.02;;;16.50;99.90;;;;;;5093128;28;20046;-67
2022/05/18 03:08:48;;;;;;;12.88;10.18;;;16.50;99.90;;;;;;5094837;28;20064;-67
2022/05/18 03:11:15;;;;;;;13.13;10.88;;;16.50;99.90;;;;;;5095342;28;20055;-67
2022/05/18 03:13:41;;;;;;;15.07;10.88;;;16.50;99.90;;;;;;5095247;28;20135;-67
2022/05/18 03:16:08;;;;;;;16.13;11.13;;;16.50;99.90;;;;;;5095139;28;20040;-66
2022/05/18 03:18:33;;;;;;;16.45;10.40;;;16.50;99.90;;;;;;5095028;28;20180;-67
2022/05/18 03:23:43;;;;;;;;;;;16.40;99.90;;;;;;5095316;28;20044;-66
2022/05/18 03:26:11;;;;;;;16.60;11.38;;;16.40;99.90;;;;;;5095064;28;19920;-67
2022/05/18 03:28:39;;;;;;;21.83;11.35;;;16.30;99.90;;;;;;5094757;28;20452;-67
2022/05/18 03:31:06;;;;;;;13.50;10.57;;;16.40;99.90;;;;;;5094855;28;20051;-67
2022/05/18 03:33:32;;;;;;;14.18;11.05;;;16.30;99.90;;;;;;5094996;28;20035;-67
2022/05/18 03:35:58;;;;;;;14.50;10.70;;;16.30;99.90;;;;;;5093935;28;20101;-66
2022/05/18 03:38:24;;;;;;;15.98;10.65;;;16.30;99.90;;;;;;5094735;28;20047;-67
2022/05/18 03:40:50;;;;;;;17.73;10.77;;;16.30;99.90;;;;;;5094704;28;20048;-66
2022/05/18 03:43:16;;;;;;;14.32;11.18;;;16.30;99.90;;;;;;5094971;28;20071;-67
2022/05/18 03:45:42;;;;;;;14.70;11.63;;;16.30;99.90;;;;;;5094674;28;20454;-66
2022/05/18 03:48:11;;;;;;;14.18;11.35;;;16.30;99.90;;;;;;5094678;28;20123;-66
2022/05/18 03:50:38;;;;;;;16.02;11.38;;;16.40;99.90;;;;;;5093592;28;20054;-67
2022/05/18 03:53:05;;;;;;;14.68;12.25;;;16.40;99.90;;;;;;5093661;28;20055;-67
2022/05/18 03:55:31;;;;;;;15.68;11.52;;;16.30;99.90;;;;;;5094737;28;20381;-67
2022/05/18 03:57:56;;;;;;;17.10;11.10;;;16.30;99.90;;;;;;5094705;28;20044;-67
2022/05/18 04:00:22;;;;;;;12.27;10.98;;;16.30;99.90;;;;;;5077043;28;20081;-67
2022/05/18 04:02:47;;;;;;;15.45;11.02;;;16.30;99.90;;;;;;5093960;28;20032;-67
2022/05/18 04:05:15;;;;;;;13.70;11.23;;;16.30;99.90;;;;;;5094959;28;20688;-66
2022/05/18 04:07:41;;;;;;;14.40;11.55;;;16.30;99.90;;;;;;5080433;28;20453;-67
2022/05/18 04:10:07;;;;;;;17.33;11.95;;;16.40;99.90;;;;;;5098383;28;20066;-67
2022/05/18 04:12:34;;;;;;;13.85;11.35;;;16.40;99.90;;;;;;5098334;28;20055;-67
2022/05/18 04:15:00;;;;;;;14.63;11.93;;;16.40;99.90;;;;;;5080744;28;20075;-66
2022/05/18 04:17:27;;;;;;;15.68;12.38;;;16.40;99.90;;;;;;5092504;28;20040;-67
2022/05/18 04:19:53;;;;;;;14.98;11.10;;;16.40;99.90;;;;;;5077917;28;20143;-66
2022/05/18 04:22:20;;;;;;;14.05;11.43;;;16.40;99.90;;;;;;5077887;28;20053;-67
2022/05/18 04:24:45;;;;;;;17.23;11.90;;;16.50;99.90;;;;;;5060478;28;20062;-66
2022/05/18 04:27:11;;;;;;;15.27;11.25;;;16.40;99.90;;;;;;5090662;28;20044;-67
2022/05/18 04:29:37;;;;;;;12.77;11.30;;;16.40;99.90;;;;;;5098062;28;20529;-66
2022/05/18 04:32:05;;;;;;;14.30;12.70;;;16.40;99.90;;;;;;5097809;28;20090;-67
2022/05/18 04:34:31;;;;;;;15.98;12.05;;;16.40;99.90;;;;;;5097763;28;20044;-67
2022/05/18 04:36:56;;;;;;;14.43;12.32;;;16.40;99.90;;;;;;5098087;28;20113;-66
2022/05/18 04:39:22;;;;;;;20.98;13.15;;;16.40;99.90;;;;;;5097880;28;20121;-67
2022/05/18 04:41:47;;;;;;;18.42;13.32;;;16.40;99.90;;;;;;5095782;28;20469;-67
2022/05/18 04:44:13;;;;;;;14.77;12.48;;;16.40;99.90;;;;;;5097370;28;20044;-67
2022/05/18 04:46:40;;;;;;;17.25;12.45;;;16.40;99.90;;;;;;5093946;28;20065;-68
2022/05/18 04:49:06;;;;;;;18.40;12.68;;;16.40;99.90;;;;;;5097477;28;20048;-66
2022/05/18 04:51:32;;;;;;;21.92;13.05;;;16.40;99.90;;;;;;5072222;28;20046;-66
2022/05/18 04:53:58;;;;;;;20.08;14.15;;;16.40;99.90;;;;;;5087059;28;20040;-67
2022/05/18 04:56:24;;;;;;;17.48;12.52;;;16.40;99.90;;;;;;5083136;28;20488;-67
2022/05/18 04:58:51;;;;;;;16.30;12.50;;;16.40;99.90;;;;;;5059440;28;20052;-66
2022/05/18 05:01:17;;;;;;;17.05;12.95;;;16.40;99.90;;;;;;5085765;28;20028;-67
2022/05/18 05:03:43;;;;;;;19.55;13.85;;;16.40;99.90;;;;;;5088827;28;20048;-67
2022/05/18 05:06:08;;;;;;;15.93;12.80;;;16.40;99.90;;;;;;5097199;28;20044;-67
2022/05/18 05:08:35;;;;;;;21.15;13.52;;;16.40;99.90;;;;;;5097402;28;20051;-66
2022/05/18 05:11:01;;;;;;;20.52;13.93;;;16.40;99.90;;;;;;5097434;28;20060;-67
2022/05/18 05:13:27;;;;;;;17.92;13.57;;;16.50;99.90;;;;;;5095900;28;20358;-71
2022/05/18 05:16:04;;;;;;;18.60;13.57;;;16.50;99.90;;;;;;5095605;28;20043;-71
2022/05/18 05:18:30;;;;;;;15.35;13.35;;;16.60;99.90;;;;;;5096170;28;20055;-71
2022/05/18 05:20:56;;;;;;;17.38;14.07;;;16.60;99.90;;;;;;5097105;28;20370;-73
2022/05/18 05:23:24;;;;;;;18.73;15.57;;;16.70;99.90;;;;;;5094899;28;20082;-68
2022/05/18 05:25:53;;;;;;;17.45;14.95;;;16.70;99.90;;;;;;5081554;28;20487;-67
2022/05/18 05:28:19;;;;;;;19.65;15.40;;;16.70;99.90;;;;;;5076001;28;20494;-68
2022/05/18 05:30:45;;;;;;;18.88;15.07;;;16.80;99.90;;;;;;5092804;28;20040;-66
2022/05/18 05:33:11;;;;;;;17.25;14.57;;;16.80;99.90;;;;;;5096014;28;20120;-67
2022/05/18 05:35:40;;;;;;;18.13;14.35;;;16.80;99.90;;;;;;5088966;28;20044;-68
2022/05/18 05:38:07;;;;;;;18.15;15.00;;;16.90;99.90;;;;;;5089435;28;20055;-68
2022/05/18 05:40:33;;;;;;;19.88;15.75;;;16.90;99.90;;;;;;5076184;28;20115;-67
2022/05/18 05:42:58;;;;;;;22.35;15.48;;;17.00;99.90;;;;;;5076093;28;20086;-69
2022/05/18 05:45:24;;;;;;;19.50;15.95;;;17.10;99.90;;;;;;5076290;28;20044;-67
2022/05/18 05:47:49;;;;;;;21.73;15.02;;;17.10;99.90;;;;;;5076129;28;20421;-67
2022/05/18 05:50:15;;;;;;;21.15;15.40;;;17.10;99.90;;;;;;5080396;28;20423;-67
2022/05/18 05:52:41;;;;;;;21.38;15.55;;;17.20;99.90;;;;;;5096314;28;20373;-67
2022/05/18 05:55:07;;;;;;;18.20;15.50;;;17.20;99.90;;;;;;5096362;28;20116;-68
2022/05/18 05:57:33;;;;;;;20.25;16.27;;;17.20;99.90;;;;;;5096352;28;20093;-68
2022/05/18 06:00:00;;;;;;;20.02;16.75;;;17.30;99.90;;;;;;5078356;28;20052;-68
2022/05/18 06:02:26;;;;;;;25.58;17.73;;;17.30;99.90;;;;;;5095941;28;20105;-67
2022/05/18 06:04:52;;;;;;;20.13;16.02;;;17.30;99.90;;;;;;5095274;28;20466;-68
2022/05/18 06:07:17;;;;;;;24.20;16.10;;;17.40;99.90;;;;;;5095847;28;20066;-66
2022/05/18 06:09:43;;;;;;;20.92;17.30;;;17.50;99.90;;;;;;5096223;28;20059;-67
2022/05/18 06:12:09;;;;;;;21.90;16.95;;;17.50;99.90;;;;;;5095860;28;20093;-67
2022/05/18 06:14:35;;;;;;;22.77;17.35;;;17.50;99.90;;;;;;5095774;28;20036;-67
2022/05/18 06:17:00;;;;;;;21.33;17.77;;;17.60;99.90;;;;;;5095861;28;20433;-67
2022/05/18 06:19:26;;;;;;;22.48;18.48;;;17.70;99.90;;;;;;5078572;28;20390;-67
2022/05/18 06:21:51;;;;;;;19.50;16.45;;;17.70;99.90;;;;;;5075478;28;20040;-68
2022/05/18 06:24:19;;;;;;;26.80;18.10;;;17.80;99.90;;;;;;5075588;28;20454;-67
2022/05/18 06:26:45;;;;;;;21.20;17.95;;;17.90;99.90;;;;;;5082439;28;20040;-67
2022/05/18 06:29:11;;;;;;;21.60;18.17;;;18.00;99.90;;;;;;5094376;28;20138;-67
2022/05/18 06:31:37;;;;;;;25.35;18.73;;;18.20;99.90;;;;;;5095804;28;20048;-67
2022/05/18 06:34:03;;;;;;;21.75;17.95;;;18.20;99.90;;;;;;5077778;28;20044;-68
2022/05/18 06:36:30;;;;;;;29.35;18.80;;;18.40;99.90;;;;;;5095523;28;20040;-67
2022/05/18 06:38:55;;;;;;;22.50;19.70;;;18.50;99.90;;;;;;5095423;28;20094;-67
2022/05/18 06:41:24;;;;;;;25.00;19.30;;;18.70;99.90;;;;;;5094643;28;20076;-68
2022/05/18 06:44:02;;;;;;;22.05;17.88;;;18.80;99.90;;;;;;5077410;28;20048;-67
2022/05/18 06:46:30;;;;;;;22.88;18.77;;;18.90;99.90;;;;;;5095271;28;20130;-67
2022/05/18 06:48:56;;;;;;;26.25;19.95;;;19.00;99.90;;;;;;5095203;28;20044;-68
2022/05/18 06:51:25;;;;;;;23.58;19.75;;;19.10;99.90;;;;;;5095481;28;20042;-67
2022/05/18 06:53:52;;;;;;;25.83;19.05;;;19.20;99.90;;;;;;5095244;28;20143;-68
2022/05/18 06:56:22;;;;;;;23.83;18.38;;;19.30;99.90;;;;;;5094205;28;20100;-68
2022/05/18 06:58:48;;;;;;;27.13;19.85;;;19.40;99.90;;;;;;5095087;28;20051;-67
2022/05/18 07:01:15;;;;;;;27.67;19.48;;;19.40;99.90;;;;;;5095280;28;20126;-68
2022/05/18 07:03:41;;;;;;;26.40;19.85;;;19.40;99.90;;;;;;5095184;28;20048;-68
2022/05/18 07:06:07;;;;;;;25.27;18.13;;;19.50;99.90;;;;;;5095150;28;20093;-68
2022/05/18 07:08:33;;;;;;;25.40;19.15;;;19.50;99.90;;;;;;5094906;28;20048;-67
2022/05/18 07:10:59;;;;;;;21.48;18.48;;;19.70;99.90;;;;;;5086097;28;20037;-68
2022/05/18 07:13:24;;;;;;;23.25;17.17;;;19.80;99.90;;;;;;5074923;28;20446;-68
2022/05/18 07:15:50;;;;;;;21.88;17.35;;;19.80;99.90;;;;;;5074747;28;20398;-68
2022/05/18 07:18:16;;;;;;;21.23;17.27;;;19.90;99.90;;;;;;5057254;28;20067;-68
2022/05/18 07:20:42;;;;;;;23.33;17.02;;;20.10;99.90;;;;;;5074605;28;20450;-67
2022/05/18 07:23:08;;;;;;;24.63;16.58;;;20.10;99.90;;;;;;5074417;28;20047;-68
2022/05/18 07:25:34;;;;;;;20.52;17.35;;;20.20;99.90;;;;;;5085490;28;20051;-68
2022/05/18 07:28:00;;;;;;;24.95;17.10;;;20.30;99.90;;;;;;5094699;28;20123;-67
2022/05/18 07:30:26;;;;;;;22.00;16.65;;;20.40;99.90;;;;;;5095001;28;20094;-68
2022/05/18 07:32:52;;;;;;;20.58;17.02;;;20.40;99.90;;;;;;5094560;28;20400;-67
2022/05/18 07:35:18;;;;;;;20.35;16.98;;;20.30;99.90;;;;;;5095016;28;20040;-68
2022/05/18 07:37:43;;;;;;;24.67;19.05;;;20.30;99.90;;;;;;5094777;28;20322;-69
2022/05/18 07:40:10;;;;;;;22.70;17.10;;;20.50;99.90;;;;;;5095787;28;20169;-68
2022/05/18 07:42:35;;;;;;;22.92;18.17;;;20.60;99.90;;;;;;5095709;28;20048;-67
2022/05/18 07:45:01;;;;;;;22.85;17.85;;;20.50;99.90;;;;;;5099097;28;20048;-68
2022/05/18 07:47:29;;;;;;;20.75;17.92;;;20.60;99.90;;;;;;5098838;28;20514;-68
2022/05/18 07:49:54;;;;;;;23.77;17.33;;;20.50;99.90;;;;;;5098715;28;20126;-68
2022/05/18 07:52:20;;;;;;;24.05;18.02;;;20.60;99.90;;;;;;5098727;28;20143;-68
2022/05/18 07:54:47;;;;;;;21.55;19.10;;;20.70;99.90;;;;;;5094701;28;20118;-69
2022/05/18 07:57:13;;;;;;;24.13;20.33;;;20.80;99.90;;;;;;5098614;28;20048;-68
2022/05/18 07:59:38;;;;;;;27.45;19.17;;;20.80;99.90;;;;;;5063764;28;20120;-68
2022/05/18 08:02:04;;;;;;;27.30;20.33;;;20.90;99.90;;;;;;5080597;28;20052;-69
2022/05/18 08:04:30;;;;;;;27.05;20.55;;;20.80;99.90;;;;;;5098790;28;20044;-68
2022/05/18 08:06:55;;;;;;;26.73;22.02;;;21.00;99.90;;;;;;5098312;28;20364;-68
2022/05/18 08:09:22;;;;;;;23.65;20.45;;;21.00;99.90;;;;;;5085418;28;20048;-68
2022/05/18 08:17:18;;;;;;;28.90;20.75;;;21.30;99.90;;;;;;5077791;28;20048;-69
2022/05/18 08:19:44;;;;;;;28.95;20.17;;;21.30;99.90;;;;;;5077735;28;20048;-69
2022/05/18 08:22:10;;;;;;;27.98;20.52;;;21.40;99.90;;;;;;5077689;28;20060;-68
2022/05/18 08:24:39;;;;;;;25.52;19.38;;;21.40;99.90;;;;;;5093804;28;20039;-69
2022/05/18 08:27:06;;;;;;;25.80;19.50;;;21.40;99.90;;;;;;5097853;28;20046;-68
2022/05/18 08:29:32;;;;;;;29.10;19.70;;;21.50;99.90;;;;;;5098097;28;20139;-68
2022/05/18 08:31:58;;;;;;;25.80;19.35;;;21.70;99.90;;;;;;5097709;28;20111;-68
2022/05/18 08:34:23;;;;;;;27.85;21.67;;;21.80;99.90;;;;;;5098009;28;20055;-68
2022/05/18 08:36:49;;;;;;;27.05;20.23;;;21.90;99.90;;;;;;5097190;28;20044;-68
2022/05/18 08:39:15;;;;;;;26.40;21.85;;;21.80;99.90;;;;;;5097731;28;20044;-68
2022/05/18 08:41:45;;;;;;;29.75;22.80;;;21.70;99.90;;;;;;5097955;28;20361;-68
2022/05/18 08:44:30;;;;;;;30.13;24.40;;;21.80;99.90;;;;;;5097917;28;20044;-68
2022/05/18 08:47:02;;;;;;;28.50;24.50;;;21.70;99.90;;;;;;5097414;28;20351;-68
2022/05/18 08:49:55;;;;;;;34.72;26.27;;;21.80;99.90;;;;;;5097815;28;20054;-68
2022/05/18 08:52:42;;;;;;;31.38;26.13;;;21.70;99.90;;;;;;5095721;28;20043;-68
2022/05/18 08:55:47;;;;;;;38.08;26.83;;;21.70;99.90;;;;;;5097152;28;20044;-68
2022/05/18 08:58:20;;;;;;;34.88;24.70;;;21.80;99.90;;;;;;5097283;28;20063;-69
2022/05/18 09:00:55;;;;;;;32.78;24.77;;;21.80;99.90;;;;;;5097395;28;20144;-68
2022/05/18 09:03:28;;;;;;;25.98;21.85;;;21.90;99.90;;;;;;5093703;28;20170;-69
2022/05/18 09:06:04;;;;;;;26.55;20.27;;;22.20;99.90;;;;;;5078635;28;20044;-69
2022/05/18 09:08:34;;;;;;;27.98;21.02;;;22.20;99.90;;;;;;5096999;28;20044;-68
2022/05/18 09:11:21;;;;;;;23.98;19.55;;;22.10;99.90;;;;;;5097100;28;20059;-68
2022/05/18 09:13:47;;;;;;;31.17;21.30;;;22.10;99.90;;;;;;5079178;28;20044;-68
2022/05/18 09:16:12;;;;;;;26.77;21.90;;;22.00;99.90;;;;;;5096835;28;20040;-69
2022/05/18 09:19:05;;;;;;;26.33;21.83;;;22.00;99.90;;;;;;5079581;28;20055;-68
2022/05/18 09:21:47;;;;;;;30.67;22.95;;;21.90;99.90;;;;;;5095321;28;20040;-69
2022/05/18 09:24:15;;;;;;;31.88;24.67;;;21.90;99.90;;;;;;5095793;28;20115;-68
2022/05/18 09:27:12;;;;;;;29.75;25.77;;;21.90;99.90;;;;;;5096813;28;20090;-68
2022/05/18 09:30:05;;;;;;;33.55;25.95;;;21.80;99.90;;;;;;5096713;28;20051;-67
2022/05/18 09:33:06;;;;;;;36.15;28.70;;;21.80;99.90;;;;;;5096739;28;20048;-68
2022/05/18 09:35:55;;;;;;;41.35;29.25;;;21.50;99.90;;;;;;5096002;28;20055;-69
2022/05/18 09:38:47;;;;;;;40.22;28.70;;;21.50;99.90;;;;;;5096745;28;20198;-68
2022/05/18 09:41:21;;;;;;;36.17;27.95;;;21.50;99.90;;;;;;5095991;28;20039;-68
2022/05/18 09:44:16;;;;;;;36.17;28.48;;;21.40;99.90;;;;;;5096576;28;20040;-68
2022/05/18 09:46:42;;;;;;;38.45;28.13;;;21.40;99.90;;;;;;5096622;28;20392;-68
2022/05/18 09:49:29;;;;;;;38.30;28.48;;;21.40;99.90;;;;;;5095319;28;20094;-68
2022/05/18 09:51:58;;;;;;;32.67;27.02;;;21.40;99.90;;;;;;5094810;28;20048;-69
2022/05/18 09:54:24;;;;;;;36.42;28.17;;;21.30;99.90;;;;;;5096393;28;20225;-69
2022/05/18 09:56:57;;;;;;;39.38;30.27;;;21.30;99.90;;;;;;5096352;28;20517;-69
2022/05/18 09:59:30;;;;;;;40.03;30.73;;;21.20;99.90;;;;;;5096272;28;20032;-69
2022/05/18 10:07:34;;;;;;;42.28;29.65;;;21.20;99.90;;;;;;5095860;28;20048;-68
2022/05/18 10:10:10;;;;;;;42.25;30.15;;;21.30;99.90;;;;;;5096146;28;20055;-70
2022/05/18 10:12:54;;;;;;;34.63;27.83;;;21.50;99.90;;;;;;5095978;28;20119;-68
2022/05/18 10:15:25;;;;;;;31.97;27.70;;;21.60;99.90;;;;;;5096141;28;20475;-68
2022/05/18 10:17:56;;;;;;;35.38;27.85;;;21.70;99.90;;;;;;5095827;28;20067;-68
2022/05/18 10:20:25;;;;;;;36.38;27.40;;;21.60;99.90;;;;;;5095228;28;20073;-69
2022/05/18 10:22:52;;;;;;;32.45;26.50;;;21.60;99.90;;;;;;5095878;28;20048;-68
2022/05/18 10:25:41;;;;;;;37.20;27.75;;;21.60;99.90;;;;;;5078093;28;20366;-69
2022/05/18 10:28:24;;;;;;;36.50;26.35;;;21.70;99.90;;;;;;5095751;28;20059;-68
2022/05/18 10:31:02;;;;;;;34.50;28.02;;;21.50;99.90;;;;;;5095462;28;20062;-68
2022/05/18 10:33:41;;;;;;;38.47;27.00;;;21.40;99.90;;;;;;5093928;28;20430;-68
2022/05/18 10:36:16;;;;;;;34.08;26.63;;;21.40;99.90;;;;;;5095408;28;20525;-69
2022/05/18 10:38:54;;;;;;;34.38;27.00;;;21.40;99.90;;;;;;5095482;28;20066;-69
2022/05/18 10:41:26;;;;;;;39.97;27.65;;;21.40;99.90;;;;;;5095354;28;20075;-68
2022/05/18 10:43:54;;;;;;;37.40;27.60;;;21.50;99.90;;;;;;5095645;28;20381;-68
2022/05/18 10:46:41;;;;;;;43.58;27.98;;;21.60;99.90;;;;;;5095265;28;20048;-68
2022/05/18 10:49:25;;;;;;;41.20;29.63;;;21.50;99.90;;;;;;5094535;28;20036;-68
2022/05/18 10:51:51;;;;;;;34.45;27.40;;;21.50;99.90;;;;;;5095225;28;20131;-69
2022/05/18 10:54:27;;;;;;;35.60;26.85;;;21.70;99.90;;;;;;5095261;28;20160;-68
2022/05/18 10:57:07;;;;;;;31.33;22.08;;;21.90;99.90;;;;;;5095194;28;20047;-69
2022/05/18 10:59:49;;;;;;;31.35;21.98;;;22.40;99.90;;;;;;5095114;28;20051;-68
2022/05/18 11:02:24;;;;;;;32.60;22.75;;;22.50;99.90;;;;;;5093791;28;20083;-69
2022/05/18 11:05:13;;;;;;;28.38;23.45;;;22.40;99.90;;;;;;5095175;28;20044;-68
2022/05/18 11:07:38;;;;;;;30.27;23.58;;;22.10;99.90;;;;;;5094733;28;20052;-68
2022/05/18 11:10:04;;;;;;;30.88;23.42;;;22.10;99.90;;;;;;5095043;28;20354;-68
2022/05/18 11:12:44;;;;;;;32.75;25.92;;;22.10;99.90;;;;;;5095007;28;20079;-68
2022/05/18 11:15:41;;;;;;;29.77;23.23;;;21.90;99.90;;;;;;5094750;28;20044;-68
2022/05/18 11:18:23;;;;;;;31.92;24.40;;;22.00;99.90;;;;;;5094035;28;20048;-68
2022/05/18 11:21:32;;;;;;;34.35;25.48;;;22.00;99.90;;;;;;5094269;28;20044;-68
2022/05/18 11:24:14;;;;;;;37.47;26.60;;;22.30;99.90;;;;;;5074469;28;20052;-68
2022/05/18 11:26:42;;;;;;;34.25;26.73;;;22.60;99.90;;;;;;5074593;28;20041;-68
2022/05/18 11:29:52;;;;;;;37.13;27.15;;;23.10;99.90;;;;;;5057312;28;20052;-69
2022/05/18 11:32:34;;;;;;;35.97;26.95;;;23.00;99.90;;;;;;5062330;28;20115;-69
2022/05/18 11:35:09;;;;;;;37.13;24.73;;;22.90;99.90;;;;;;5094663;28;20461;-68
2022/05/18 11:37:47;;;;;;;36.95;26.15;;;22.90;99.90;;;;;;5094901;28;20113;-69
2022/05/18 11:40:15;;;;;;;35.38;23.13;;;22.70;99.90;;;;;;5094847;28;20056;-68
2022/05/18 11:43:28;;;;;;;34.33;22.27;;;22.70;99.90;;;;;;5094341;28;20453;-68
2022/05/18 11:46:28;;;;;;;33.80;22.98;;;22.90;99.90;;;;;;5094955;28;20377;-68
2022/05/18 11:49:17;;;;;;;32.50;23.85;;;23.00;99.90;;;;;;5094478;28;20373;-70
2022/05/18 11:52:03;;;;;;;33.55;24.40;;;23.10;99.90;;;;;;5094759;28;20044;-69
2022/05/18 11:54:48;;;;;;;30.17;24.27;;;23.10;99.90;;;;;;5094583;28;20046;-68
2022/05/18 11:57:35;;;;;;;33.28;22.52;;;23.00;99.90;;;;;;5094571;28;20044;-67
2022/05/18 12:00:45;;;;;;;30.45;21.75;;;22.70;99.90;;;;;;5094403;28;20580;-67
2022/05/18 12:03:29;;;;;;;33.60;23.63;;;22.70;99.90;;;;;;5093740;28;20056;-67
2022/05/18 12:06:07;;;;;;;33.10;25.02;;;22.70;99.90;;;;;;5094663;28;20071;-67
2022/05/18 12:09:03;;;;;;;35.13;25.40;;;22.50;99.90;;;;;;5094364;28;20140;-66
2022/05/18 12:11:43;;;;;;;30.38;24.75;;;22.80;99.90;;;;;;5094380;28;20059;-67
2022/05/18 12:14:34;;;;;;;37.08;26.85;;;22.80;99.90;;;;;;5094558;28;20036;-67
2022/05/18 12:17:27;;;;;;;30.15;22.67;;;22.40;99.90;;;;;;5088676;28;20343;-67
2022/05/18 12:20:14;;;;;;;30.63;23.23;;;22.70;99.90;;;;;;5092485;28;20461;-67
2022/05/18 12:22:45;;;;;;;33.05;22.00;;;22.60;99.90;;;;;;5093943;28;20059;-67
2022/05/18 12:25:15;;;;;;;33.90;21.90;;;22.50;99.90;;;;;;5094434;28;20044;-67
2022/05/18 12:27:42;;;;;;;34.05;22.20;;;22.50;99.90;;;;;;5096981;28;20059;-67
2022/05/18 12:30:10;;;;;;;27.08;19.90;;;22.30;99.90;;;;;;5093996;28;20102;-67
2022/05/18 12:32:37;;;;;;;32.92;21.13;;;22.20;99.90;;;;;;5077694;28;20044;-67
2022/05/18 12:35:44;;;;;;;28.05;19.70;;;22.30;99.90;;;;;;5077758;28;20063;-66
2022/05/18 12:38:27;;;;;;;26.13;19.23;;;22.50;99.90;;;;;;5063625;28;20060;-67
2022/05/18 12:41:09;;;;;;;27.95;18.65;;;22.10;99.90;;;;;;5077511;28;20097;-68
2022/05/18 12:43:39;;;;;;;25.50;17.95;;;22.20;99.90;;;;;;5077376;28;20060;-67
2022/05/18 12:46:25;;;;;;;30.10;19.52;;;22.40;99.90;;;;;;5090777;28;20438;-68
2022/05/18 12:48:58;;;;;;;29.13;18.98;;;22.00;99.90;;;;;;5029079;28;20202;-68
2022/05/18 12:51:27;;;;;;;27.10;19.42;;;22.10;99.90;;;;;;5097716;28;20044;-68
2022/05/18 12:53:52;;;;;;;28.10;17.58;;;22.30;99.90;;;;;;5097382;28;20044;-69
2022/05/18 12:56:36;;;;;;;27.20;16.63;;;22.50;99.90;;;;;;5097752;28;20036;-68
2022/05/18 12:59:23;;;;;;;26.25;16.98;;;22.70;99.90;;;;;;5097366;28;20372;-67
2022/05/18 13:02:03;;;;;;;27.33;16.70;;;22.70;99.90;;;;;;5059288;28;20048;-68